sensor_id;sensor_type;location;lat;lon;timestamp;temperature;humidity
29775;DHT22;16676;51.202;6.774;2023-08-07T00:01:47;20.40;74.70
29775;DHT22;16676;51.202;6.774;2023-08-07T00:05:49;20.40;75.10
29775;DHT22;16676;51.202;6.774;2023-08-07T00:09:52;20.40;74.90
29775;DHT22;16676;51.202;6.774;2023-08-07T00:13:54;20.40;74.90
29775;DHT22;16676;51.202;6.774;2023-08-07T00:17:57;20.40;75.30
29775;DHT22;16676;51.202;6.774;2023-08-07T00:21:59;20.40;75.00
29775;DHT22;16676;51.202;6.774;2023-08-07T00:26:01;20.40;75.00
29775;DHT22;16676;51.202;6.774;2023-08-07T00:30:04;20.40;75.10
29775;DHT22;16676;51.202;6.774;2023-08-07T00:34:07;20.40;75.10
29775;DHT22;16676;51.202;6.774;2023-08-07T00:38:10;20.40;75.30
29775;DHT22;16676;51.202;6.774;2023-08-07T00:42:12;20.40;75.20
29775;DHT22;16676;51.202;6.774;2023-08-07T00:46:14;20.40;74.70
29775;DHT22;16676;51.202;6.774;2023-08-07T00:50:17;20.40;75.20
29775;DHT22;16676;51.202;6.774;2023-08-07T00:54:20;20.40;75.00
29775;DHT22;16676;51.202;6.774;2023-08-07T00:58:22;20.40;75.00
29775;DHT22;16676;51.202;6.774;2023-08-07T01:02:24;20.40;74.80
29775;DHT22;16676;51.202;6.774;2023-08-07T01:06:28;20.40;75.00
29775;DHT22;16676;51.202;6.774;2023-08-07T01:10:49;20.40;74.90
29775;DHT22;16676;51.202;6.774;2023-08-07T01:14:57;20.40;75.10
29775;DHT22;16676;51.202;6.774;2023-08-07T01:19:01;20.40;74.90
29775;DHT22;16676;51.202;6.774;2023-08-07T01:23:06;20.30;74.90
29775;DHT22;16676;51.202;6.774;2023-08-07T01:27:23;20.30;74.90
29775;DHT22;16676;51.202;6.774;2023-08-07T01:31:28;20.30;75.00
29775;DHT22;16676;51.202;6.774;2023-08-07T01:35:34;20.30;75.00
29775;DHT22;16676;51.202;6.774;2023-08-07T01:39:39;20.30;74.60
29775;DHT22;16676;51.202;6.774;2023-08-07T01:43:42;20.30;74.50
29775;DHT22;16676;51.202;6.774;2023-08-07T01:47:44;20.30;74.60
29775;DHT22;16676;51.202;6.774;2023-08-07T01:51:46;20.30;74.70
29775;DHT22;16676;51.202;6.774;2023-08-07T01:55:49;20.30;74.30
29775;DHT22;16676;51.202;6.774;2023-08-07T01:59:52;20.30;74.30
29775;DHT22;16676;51.202;6.774;2023-08-07T02:03:53;20.20;74.50
29775;DHT22;16676;51.202;6.774;2023-08-07T02:07:55;20.30;74.60
29775;DHT22;16676;51.202;6.774;2023-08-07T02:11:59;20.30;74.60
29775;DHT22;16676;51.202;6.774;2023-08-07T02:16:02;20.30;74.30
29775;DHT22;16676;51.202;6.774;2023-08-07T02:20:05;20.30;74.60
29775;DHT22;16676;51.202;6.774;2023-08-07T02:24:07;20.30;74.30
29775;DHT22;16676;51.202;6.774;2023-08-07T02:28:11;20.30;74.50
29775;DHT22;16676;51.202;6.774;2023-08-07T02:32:13;20.30;74.30
29775;DHT22;16676;51.202;6.774;2023-08-07T02:36:15;20.20;74.20
29775;DHT22;16676;51.202;6.774;2023-08-07T02:40:17;20.30;74.60
29775;DHT22;16676;51.202;6.774;2023-08-07T02:44:21;20.30;74.60
29775;DHT22;16676;51.202;6.774;2023-08-07T02:48:23;20.30;74.30
29775;DHT22;16676;51.202;6.774;2023-08-07T02:52:25;20.30;74.50
29775;DHT22;16676;51.202;6.774;2023-08-07T02:56:27;20.30;74.40
29775;DHT22;16676;51.202;6.774;2023-08-07T03:00:30;20.30;74.60
29775;DHT22;16676;51.202;6.774;2023-08-07T03:04:32;20.30;74.40
29775;DHT22;16676;51.202;6.774;2023-08-07T03:08:34;20.30;74.20
29775;DHT22;16676;51.202;6.774;2023-08-07T03:12:36;20.20;74.40
29775;DHT22;16676;51.202;6.774;2023-08-07T03:16:39;20.20;74.50
29775;DHT22;16676;51.202;6.774;2023-08-07T03:20:41;20.20;74.30
29775;DHT22;16676;51.202;6.774;2023-08-07T03:24:46;20.20;74.50
29775;DHT22;16676;51.202;6.774;2023-08-07T03:28:48;20.30;74.10
29775;DHT22;16676;51.202;6.774;2023-08-07T03:32:52;20.20;74.10
29775;DHT22;16676;51.202;6.774;2023-08-07T03:36:54;20.20;74.20
29775;DHT22;16676;51.202;6.774;2023-08-07T03:40:56;20.20;74.30
29775;DHT22;16676;51.202;6.774;2023-08-07T03:44:58;20.20;74.20
29775;DHT22;16676;51.202;6.774;2023-08-07T03:49:02;20.20;74.00
29775;DHT22;16676;51.202;6.774;2023-08-07T03:53:04;20.20;74.20
29775;DHT22;16676;51.202;6.774;2023-08-07T03:57:07;20.20;74.00
29775;DHT22;16676;51.202;6.774;2023-08-07T04:01:11;20.20;73.90
29775;DHT22;16676;51.202;6.774;2023-08-07T04:05:14;20.20;73.70
29775;DHT22;16676;51.202;6.774;2023-08-07T04:09:16;20.20;74.00
29775;DHT22;16676;51.202;6.774;2023-08-07T04:13:18;20.20;74.00
29775;DHT22;16676;51.202;6.774;2023-08-07T04:17:20;20.20;74.00
29775;DHT22;16676;51.202;6.774;2023-08-07T04:21:23;20.20;73.80
29775;DHT22;16676;51.202;6.774;2023-08-07T04:25:25;20.20;73.80
29775;DHT22;16676;51.202;6.774;2023-08-07T04:29:27;20.20;73.90
29775;DHT22;16676;51.202;6.774;2023-08-07T04:33:29;20.20;73.70
29775;DHT22;16676;51.202;6.774;2023-08-07T04:37:32;20.10;73.90
29775;DHT22;16676;51.202;6.774;2023-08-07T04:41:34;20.10;73.90
29775;DHT22;16676;51.202;6.774;2023-08-07T04:45:36;20.10;74.20
29775;DHT22;16676;51.202;6.774;2023-08-07T04:49:39;19.90;74.60
29775;DHT22;16676;51.202;6.774;2023-08-07T04:53:42;19.90;75.00
29775;DHT22;16676;51.202;6.774;2023-08-07T04:57:44;19.90;75.10
29775;DHT22;16676;51.202;6.774;2023-08-07T05:01:47;19.80;75.70
29775;DHT22;16676;51.202;6.774;2023-08-07T05:05:49;19.80;75.70
29775;DHT22;16676;51.202;6.774;2023-08-07T05:09:52;19.80;76.10
29775;DHT22;16676;51.202;6.774;2023-08-07T05:13:54;19.80;75.70
29775;DHT22;16676;51.202;6.774;2023-08-07T05:17:56;19.80;75.70
29775;DHT22;16676;51.202;6.774;2023-08-07T05:21:58;19.80;75.80
29775;DHT22;16676;51.202;6.774;2023-08-07T05:26:01;19.80;75.70
29775;DHT22;16676;51.202;6.774;2023-08-07T05:30:05;19.80;75.70
29775;DHT22;16676;51.202;6.774;2023-08-07T05:34:07;19.80;75.70
29775;DHT22;16676;51.202;6.774;2023-08-07T05:38:09;19.70;75.70
29775;DHT22;16676;51.202;6.774;2023-08-07T05:42:12;19.60;76.10
29775;DHT22;16676;51.202;6.774;2023-08-07T05:46:14;19.60;76.50
29775;DHT22;16676;51.202;6.774;2023-08-07T05:50:16;19.60;76.30
29775;DHT22;16676;51.202;6.774;2023-08-07T05:54:18;19.60;76.30
29775;DHT22;16676;51.202;6.774;2023-08-07T05:58:21;19.60;76.40
29775;DHT22;16676;51.202;6.774;2023-08-07T06:02:23;19.50;76.50
29775;DHT22;16676;51.202;6.774;2023-08-07T06:06:26;19.50;76.80
29775;DHT22;16676;51.202;6.774;2023-08-07T06:10:28;19.60;77.00
29775;DHT22;16676;51.202;6.774;2023-08-07T06:14:32;19.60;77.10
29775;DHT22;16676;51.202;6.774;2023-08-07T06:18:34;19.60;76.80
29775;DHT22;16676;51.202;6.774;2023-08-07T06:22:36;19.70;76.50
29775;DHT22;16676;51.202;6.774;2023-08-07T06:26:38;19.70;76.40
29775;DHT22;16676;51.202;6.774;2023-08-07T06:30:42;19.70;76.50
29775;DHT22;16676;51.202;6.774;2023-08-07T06:34:44;19.80;76.60
29775;DHT22;16676;51.202;6.774;2023-08-07T06:38:47;19.90;76.50
29775;DHT22;16676;51.202;6.774;2023-08-07T06:42:49;20.00;75.90
29775;DHT22;16676;51.202;6.774;2023-08-07T06:46:52;20.10;75.90
29775;DHT22;16676;51.202;6.774;2023-08-07T06:50:54;20.10;75.70
29775;DHT22;16676;51.202;6.774;2023-08-07T06:54:56;20.20;75.60
29775;DHT22;16676;51.202;6.774;2023-08-07T06:58:58;20.20;75.50
29775;DHT22;16676;51.202;6.774;2023-08-07T07:03:02;20.30;75.80
29775;DHT22;16676;51.202;6.774;2023-08-07T07:07:04;20.40;75.90
29775;DHT22;16676;51.202;6.774;2023-08-07T07:11:06;20.40;76.10
29775;DHT22;16676;51.202;6.774;2023-08-07T07:15:09;20.50;76.30
29775;DHT22;16676;51.202;6.774;2023-08-07T07:19:13;20.50;76.30
29775;DHT22;16676;51.202;6.774;2023-08-07T07:23:15;20.50;76.40
29775;DHT22;16676;51.202;6.774;2023-08-07T07:27:17;20.60;76.40
29775;DHT22;16676;51.202;6.774;2023-08-07T07:31:19;20.60;76.50
29775;DHT22;16676;51.202;6.774;2023-08-07T07:35:22;20.60;76.60
29775;DHT22;16676;51.202;6.774;2023-08-07T07:39:25;20.60;76.80
29775;DHT22;16676;51.202;6.774;2023-08-07T07:43:26;20.70;76.90
29775;DHT22;16676;51.202;6.774;2023-08-07T07:47:28;20.70;76.70
29775;DHT22;16676;51.202;6.774;2023-08-07T07:51:32;20.70;76.60
29775;DHT22;16676;51.202;6.774;2023-08-07T07:55:35;20.80;77.00
29775;DHT22;16676;51.202;6.774;2023-08-07T07:59:38;20.80;77.10
29775;DHT22;16676;51.202;6.774;2023-08-07T08:03:40;20.80;77.00
29775;DHT22;16676;51.202;6.774;2023-08-07T08:07:45;20.80;76.90
29775;DHT22;16676;51.202;6.774;2023-08-07T08:11:47;20.90;76.80
29775;DHT22;16676;51.202;6.774;2023-08-07T08:15:49;20.90;76.80
29775;DHT22;16676;51.202;6.774;2023-08-07T08:19:51;20.90;77.00
29775;DHT22;16676;51.202;6.774;2023-08-07T08:23:54;20.90;77.00
29775;DHT22;16676;51.202;6.774;2023-08-07T08:27:57;21.00;77.10
29775;DHT22;16676;51.202;6.774;2023-08-07T08:31:59;21.00;77.30
29775;DHT22;16676;51.202;6.774;2023-08-07T08:36:01;21.00;77.20
29775;DHT22;16676;51.202;6.774;2023-08-07T08:40:05;21.00;78.00
29775;DHT22;16676;51.202;6.774;2023-08-07T08:44:10;21.00;77.30
29775;DHT22;16676;51.202;6.774;2023-08-07T08:48:19;21.10;77.40
29775;DHT22;16676;51.202;6.774;2023-08-07T08:52:24;21.10;77.40
29775;DHT22;16676;51.202;6.774;2023-08-07T08:56:29;21.10;77.40
29775;DHT22;16676;51.202;6.774;2023-08-07T09:00:31;21.10;77.40
29775;DHT22;16676;51.202;6.774;2023-08-07T09:04:35;21.20;77.50
29775;DHT22;16676;51.202;6.774;2023-08-07T09:08:38;21.20;77.30
29775;DHT22;16676;51.202;6.774;2023-08-07T09:12:51;21.20;77.30
29775;DHT22;16676;51.202;6.774;2023-08-07T09:16:54;21.30;77.30
29775;DHT22;16676;51.202;6.774;2023-08-07T09:20:56;21.20;77.10
29775;DHT22;16676;51.202;6.774;2023-08-07T09:24:59;21.30;77.30
29775;DHT22;16676;51.202;6.774;2023-08-07T09:29:02;21.30;77.30
29775;DHT22;16676;51.202;6.774;2023-08-07T09:33:05;21.30;77.40
29775;DHT22;16676;51.202;6.774;2023-08-07T09:37:07;21.30;77.50
29775;DHT22;16676;51.202;6.774;2023-08-07T09:41:09;21.30;77.60
29775;DHT22;16676;51.202;6.774;2023-08-07T09:45:23;21.30;77.60
29775;DHT22;16676;51.202;6.774;2023-08-07T09:49:32;21.30;77.50
29775;DHT22;16676;51.202;6.774;2023-08-07T09:53:34;21.40;77.60
29775;DHT22;16676;51.202;6.774;2023-08-07T09:57:37;21.30;77.60
29775;DHT22;16676;51.202;6.774;2023-08-07T10:01:40;21.40;77.60
29775;DHT22;16676;51.202;6.774;2023-08-07T10:05:44;21.50;77.50
29775;DHT22;16676;51.202;6.774;2023-08-07T10:09:47;21.50;77.60
29775;DHT22;16676;51.202;6.774;2023-08-07T10:13:49;21.50;77.50
29775;DHT22;16676;51.202;6.774;2023-08-07T10:17:53;21.50;77.50
29775;DHT22;16676;51.202;6.774;2023-08-07T10:21:55;21.60;77.10
29775;DHT22;16676;51.202;6.774;2023-08-07T10:25:57;21.60;77.20
29775;DHT22;16676;51.202;6.774;2023-08-07T10:30:04;21.70;77.10
29775;DHT22;16676;51.202;6.774;2023-08-07T10:34:09;21.70;77.10
29775;DHT22;16676;51.202;6.774;2023-08-07T10:38:11;21.80;77.10
29775;DHT22;16676;51.202;6.774;2023-08-07T10:42:13;21.90;76.90
29775;DHT22;16676;51.202;6.774;2023-08-07T10:46:16;21.90;77.00
29775;DHT22;16676;51.202;6.774;2023-08-07T10:50:27;21.90;76.90
29775;DHT22;16676;51.202;6.774;2023-08-07T10:54:29;21.90;77.20
29775;DHT22;16676;51.202;6.774;2023-08-07T10:58:32;21.90;77.30
29775;DHT22;16676;51.202;6.774;2023-08-07T11:02:37;22.00;76.90
29775;DHT22;16676;51.202;6.774;2023-08-07T11:06:43;22.00;76.90
29775;DHT22;16676;51.202;6.774;2023-08-07T11:10:45;22.00;76.70
29775;DHT22;16676;51.202;6.774;2023-08-07T11:14:47;22.10;76.70
29775;DHT22;16676;51.202;6.774;2023-08-07T11:18:49;22.10;76.60
29775;DHT22;16676;51.202;6.774;2023-08-07T11:22:54;22.20;76.40
29775;DHT22;16676;51.202;6.774;2023-08-07T11:26:57;22.20;76.10
29775;DHT22;16676;51.202;6.774;2023-08-07T11:31:00;22.20;74.80
29775;DHT22;16676;51.202;6.774;2023-08-07T11:35:04;22.20;70.30
29775;DHT22;16676;51.202;6.774;2023-08-07T11:39:08;22.10;69.80
29775;DHT22;16676;51.202;6.774;2023-08-07T11:43:11;22.10;69.10
29775;DHT22;16676;51.202;6.774;2023-08-07T11:47:12;22.00;66.50
29775;DHT22;16676;51.202;6.774;2023-08-07T11:51:15;21.90;65.00
29775;DHT22;16676;51.202;6.774;2023-08-07T11:55:19;21.80;61.90
29775;DHT22;16676;51.202;6.774;2023-08-07T11:59:21;21.80;59.80
29775;DHT22;16676;51.202;6.774;2023-08-07T12:03:28;21.60;59.20
29775;DHT22;16676;51.202;6.774;2023-08-07T12:07:30;21.50;57.80
29775;DHT22;16676;51.202;6.774;2023-08-07T12:11:35;21.40;57.00
29775;DHT22;16676;51.202;6.774;2023-08-07T12:15:37;21.30;55.50
29775;DHT22;16676;51.202;6.774;2023-08-07T12:19:40;21.20;54.70
29775;DHT22;16676;51.202;6.774;2023-08-07T12:23:44;21.20;54.60
29775;DHT22;16676;51.202;6.774;2023-08-07T12:27:49;21.30;57.70
29775;DHT22;16676;51.202;6.774;2023-08-07T12:31:51;21.50;57.90
29775;DHT22;16676;51.202;6.774;2023-08-07T12:35:53;21.60;57.90
29775;DHT22;16676;51.202;6.774;2023-08-07T12:39:55;21.80;58.30
29775;DHT22;16676;51.202;6.774;2023-08-07T12:43:58;21.90;58.70
29775;DHT22;16676;51.202;6.774;2023-08-07T12:48:02;22.00;59.30
29775;DHT22;16676;51.202;6.774;2023-08-07T12:52:05;22.10;59.70
29775;DHT22;16676;51.202;6.774;2023-08-07T12:56:07;22.20;60.10
29775;DHT22;16676;51.202;6.774;2023-08-07T13:00:11;22.20;60.60
29775;DHT22;16676;51.202;6.774;2023-08-07T13:04:15;22.20;61.00
29775;DHT22;16676;51.202;6.774;2023-08-07T13:08:17;22.20;61.50
29775;DHT22;16676;51.202;6.774;2023-08-07T13:12:19;22.30;62.10
29775;DHT22;16676;51.202;6.774;2023-08-07T13:16:23;22.40;62.30
29775;DHT22;16676;51.202;6.774;2023-08-07T13:20:25;22.40;62.50
29775;DHT22;16676;51.202;6.774;2023-08-07T13:24:27;22.40;61.00
29775;DHT22;16676;51.202;6.774;2023-08-07T13:28:29;22.40;59.40
29775;DHT22;16676;51.202;6.774;2023-08-07T13:32:33;22.40;59.20
29775;DHT22;16676;51.202;6.774;2023-08-07T13:36:36;22.50;59.30
29775;DHT22;16676;51.202;6.774;2023-08-07T13:40:38;22.50;59.20
29775;DHT22;16676;51.202;6.774;2023-08-07T13:44:40;22.50;58.30
29775;DHT22;16676;51.202;6.774;2023-08-07T13:48:43;22.50;57.20
29775;DHT22;16676;51.202;6.774;2023-08-07T13:52:45;22.50;56.50
29775;DHT22;16676;51.202;6.774;2023-08-07T13:56:47;22.50;55.00
29775;DHT22;16676;51.202;6.774;2023-08-07T14:00:51;22.30;51.80
29775;DHT22;16676;51.202;6.774;2023-08-07T14:04:54;22.10;50.90
29775;DHT22;16676;51.202;6.774;2023-08-07T14:08:58;22.00;54.70
29775;DHT22;16676;51.202;6.774;2023-08-07T14:12:59;22.10;53.70
29775;DHT22;16676;51.202;6.774;2023-08-07T14:17:02;22.10;52.20
29775;DHT22;16676;51.202;6.774;2023-08-07T14:21:05;22.10;51.90
29775;DHT22;16676;51.202;6.774;2023-08-07T14:25:08;22.00;51.10
29775;DHT22;16676;51.202;6.774;2023-08-07T14:29:10;21.90;51.00
29775;DHT22;16676;51.202;6.774;2023-08-07T14:33:12;21.90;51.90
29775;DHT22;16676;51.202;6.774;2023-08-07T14:37:15;22.00;52.20
29775;DHT22;16676;51.202;6.774;2023-08-07T14:41:17;21.90;53.30
29775;DHT22;16676;51.202;6.774;2023-08-07T14:45:20;21.90;54.70
29775;DHT22;16676;51.202;6.774;2023-08-07T14:49:23;21.90;53.60
29775;DHT22;16676;51.202;6.774;2023-08-07T14:53:26;21.90;55.40
29775;DHT22;16676;51.202;6.774;2023-08-07T14:57:28;21.90;54.30
29775;DHT22;16676;51.202;6.774;2023-08-07T15:01:30;21.90;54.30
29775;DHT22;16676;51.202;6.774;2023-08-07T15:05:32;21.90;54.60
29775;DHT22;16676;51.202;6.774;2023-08-07T15:09:36;22.00;54.70
29775;DHT22;16676;51.202;6.774;2023-08-07T15:13:38;21.90;54.60
29775;DHT22;16676;51.202;6.774;2023-08-07T15:17:40;21.90;55.20
29775;DHT22;16676;51.202;6.774;2023-08-07T15:21:42;21.90;55.00
29775;DHT22;16676;51.202;6.774;2023-08-07T15:25:46;21.90;54.80
29775;DHT22;16676;51.202;6.774;2023-08-07T15:29:48;21.90;55.10
29775;DHT22;16676;51.202;6.774;2023-08-07T15:33:50;21.90;55.20
29775;DHT22;16676;51.202;6.774;2023-08-07T15:37:53;21.90;55.50
29775;DHT22;16676;51.202;6.774;2023-08-07T15:41:56;21.80;55.50
29775;DHT22;16676;51.202;6.774;2023-08-07T15:45:58;21.80;57.10
29775;DHT22;16676;51.202;6.774;2023-08-07T15:50:00;21.70;58.00
29775;DHT22;16676;51.202;6.774;2023-08-07T15:54:02;21.70;58.00
29775;DHT22;16676;51.202;6.774;2023-08-07T15:58:06;21.60;58.00
29775;DHT22;16676;51.202;6.774;2023-08-07T16:02:08;21.60;57.90
29775;DHT22;16676;51.202;6.774;2023-08-07T16:06:10;21.60;58.10
29775;DHT22;16676;51.202;6.774;2023-08-07T16:10:12;21.60;58.10
29775;DHT22;16676;51.202;6.774;2023-08-07T16:14:15;21.60;58.20
29775;DHT22;16676;51.202;6.774;2023-08-07T16:18:18;21.60;58.40
29775;DHT22;16676;51.202;6.774;2023-08-07T16:22:20;21.60;58.40
29775;DHT22;16676;51.202;6.774;2023-08-07T16:26:22;21.60;57.90
29775;DHT22;16676;51.202;6.774;2023-08-07T16:30:25;21.70;58.20
29775;DHT22;16676;51.202;6.774;2023-08-07T16:34:27;21.80;58.80
29775;DHT22;16676;51.202;6.774;2023-08-07T16:38:29;21.80;58.60
29775;DHT22;16676;51.202;6.774;2023-08-07T16:42:31;21.90;59.30
29775;DHT22;16676;51.202;6.774;2023-08-07T16:46:35;21.90;59.10
29775;DHT22;16676;51.202;6.774;2023-08-07T16:50:37;21.90;59.40
29775;DHT22;16676;51.202;6.774;2023-08-07T16:54:39;21.90;59.40
29775;DHT22;16676;51.202;6.774;2023-08-07T16:58:41;21.90;59.70
29775;DHT22;16676;51.202;6.774;2023-08-07T17:02:47;22.00;59.30
29775;DHT22;16676;51.202;6.774;2023-08-07T17:06:49;21.90;59.50
29775;DHT22;16676;51.202;6.774;2023-08-07T17:10:51;21.90;59.10
29775;DHT22;16676;51.202;6.774;2023-08-07T17:14:53;21.90;59.60
29775;DHT22;16676;51.202;6.774;2023-08-07T17:18:56;22.00;60.00
29775;DHT22;16676;51.202;6.774;2023-08-07T17:22:59;22.00;59.70
29775;DHT22;16676;51.202;6.774;2023-08-07T17:27:01;22.00;59.70
29775;DHT22;16676;51.202;6.774;2023-08-07T17:31:04;22.00;59.30
29775;DHT22;16676;51.202;6.774;2023-08-07T17:35:08;22.00;59.50
29775;DHT22;16676;51.202;6.774;2023-08-07T17:39:10;21.90;59.50
29775;DHT22;16676;51.202;6.774;2023-08-07T17:43:12;21.90;59.50
29775;DHT22;16676;51.202;6.774;2023-08-07T17:47:14;21.90;59.50
29775;DHT22;16676;51.202;6.774;2023-08-07T17:51:17;21.90;59.80
29775;DHT22;16676;51.202;6.774;2023-08-07T17:55:20;21.90;59.90
29775;DHT22;16676;51.202;6.774;2023-08-07T17:59:24;21.90;59.90
29775;DHT22;16676;51.202;6.774;2023-08-07T18:03:26;21.90;60.40
29775;DHT22;16676;51.202;6.774;2023-08-07T18:07:29;21.90;60.50
29775;DHT22;16676;51.202;6.774;2023-08-07T18:11:32;21.90;60.60
29775;DHT22;16676;51.202;6.774;2023-08-07T18:15:33;21.90;60.70
29775;DHT22;16676;51.202;6.774;2023-08-07T18:19:35;21.90;61.20
29775;DHT22;16676;51.202;6.774;2023-08-07T18:23:39;21.90;61.60
29775;DHT22;16676;51.202;6.774;2023-08-07T18:27:41;21.90;61.30
29775;DHT22;16676;51.202;6.774;2023-08-07T18:31:43;21.90;61.80
29775;DHT22;16676;51.202;6.774;2023-08-07T18:35:45;21.90;61.60
29775;DHT22;16676;51.202;6.774;2023-08-07T18:39:48;21.90;61.90
29775;DHT22;16676;51.202;6.774;2023-08-07T18:43:50;21.90;62.10
29775;DHT22;16676;51.202;6.774;2023-08-07T18:47:52;21.90;62.40
29775;DHT22;16676;51.202;6.774;2023-08-07T18:51:54;21.90;62.60
29775;DHT22;16676;51.202;6.774;2023-08-07T18:55:58;21.90;62.70
29775;DHT22;16676;51.202;6.774;2023-08-07T19:00:00;21.90;62.90
29775;DHT22;16676;51.202;6.774;2023-08-07T19:04:02;21.90;63.00
29775;DHT22;16676;51.202;6.774;2023-08-07T19:08:04;21.90;62.70
29775;DHT22;16676;51.202;6.774;2023-08-07T19:12:08;21.90;63.20
29775;DHT22;16676;51.202;6.774;2023-08-07T19:16:11;21.80;63.20
29775;DHT22;16676;51.202;6.774;2023-08-07T19:20:13;21.80;63.20
29775;DHT22;16676;51.202;6.774;2023-08-07T19:24:16;21.80;63.10
29775;DHT22;16676;51.202;6.774;2023-08-07T19:28:19;21.80;63.10
29775;DHT22;16676;51.202;6.774;2023-08-07T19:32:21;21.80;63.40
29775;DHT22;16676;51.202;6.774;2023-08-07T19:36:23;21.80;64.10
29775;DHT22;16676;51.202;6.774;2023-08-07T19:40:26;21.80;63.30
29775;DHT22;16676;51.202;6.774;2023-08-07T19:44:29;21.80;63.40
29775;DHT22;16676;51.202;6.774;2023-08-07T19:48:31;21.80;62.60
29775;DHT22;16676;51.202;6.774;2023-08-07T19:52:33;21.70;62.10
29775;DHT22;16676;51.202;6.774;2023-08-07T19:56:35;21.70;62.00
29775;DHT22;16676;51.202;6.774;2023-08-07T20:00:38;21.60;62.50
29775;DHT22;16676;51.202;6.774;2023-08-07T20:04:40;21.70;62.60
29775;DHT22;16676;51.202;6.774;2023-08-07T20:08:42;21.60;63.40
29775;DHT22;16676;51.202;6.774;2023-08-07T20:12:44;21.60;62.50
29775;DHT22;16676;51.202;6.774;2023-08-07T20:16:47;21.60;62.80
29775;DHT22;16676;51.202;6.774;2023-08-07T20:20:50;21.60;62.60
29775;DHT22;16676;51.202;6.774;2023-08-07T20:24:52;21.60;62.50
29775;DHT22;16676;51.202;6.774;2023-08-07T20:28:54;21.60;62.80
29775;DHT22;16676;51.202;6.774;2023-08-07T20:32:59;21.60;62.90
29775;DHT22;16676;51.202;6.774;2023-08-07T20:37:01;21.60;62.90
29775;DHT22;16676;51.202;6.774;2023-08-07T20:41:05;21.60;63.20
29775;DHT22;16676;51.202;6.774;2023-08-07T20:45:08;21.60;63.40
29775;DHT22;16676;51.202;6.774;2023-08-07T20:49:11;21.60;63.30
29775;DHT22;16676;51.202;6.774;2023-08-07T20:53:13;21.60;63.40
29775;DHT22;16676;51.202;6.774;2023-08-07T20:57:15;21.60;63.50
29775;DHT22;16676;51.202;6.774;2023-08-07T21:01:17;21.60;63.60
29775;DHT22;16676;51.202;6.774;2023-08-07T21:05:20;21.50;63.70
29775;DHT22;16676;51.202;6.774;2023-08-07T21:09:22;21.60;63.70
29775;DHT22;16676;51.202;6.774;2023-08-07T21:13:24;21.50;63.70
29775;DHT22;16676;51.202;6.774;2023-08-07T21:17:26;21.50;63.70
29775;DHT22;16676;51.202;6.774;2023-08-07T21:21:29;21.50;63.70
29775;DHT22;16676;51.202;6.774;2023-08-07T21:25:31;21.50;63.70
29775;DHT22;16676;51.202;6.774;2023-08-07T21:29:33;21.60;63.70
29775;DHT22;16676;51.202;6.774;2023-08-07T21:33:35;21.50;63.70
29775;DHT22;16676;51.202;6.774;2023-08-07T21:37:39;21.50;63.50
29775;DHT22;16676;51.202;6.774;2023-08-07T21:41:41;21.50;63.60
29775;DHT22;16676;51.202;6.774;2023-08-07T21:45:43;21.50;63.60
29775;DHT22;16676;51.202;6.774;2023-08-07T21:49:45;21.50;63.70
29775;DHT22;16676;51.202;6.774;2023-08-07T21:53:49;21.50;63.90
29775;DHT22;16676;51.202;6.774;2023-08-07T21:57:50;21.50;63.80
29775;DHT22;16676;51.202;6.774;2023-08-07T22:01:52;21.40;63.90
29775;DHT22;16676;51.202;6.774;2023-08-07T22:05:54;21.40;63.80
29775;DHT22;16676;51.202;6.774;2023-08-07T22:09:58;21.40;63.90
29775;DHT22;16676;51.202;6.774;2023-08-07T22:14:00;21.40;63.90
29775;DHT22;16676;51.202;6.774;2023-08-07T22:18:02;21.40;63.80
29775;DHT22;16676;51.202;6.774;2023-08-07T22:22:04;21.40;63.90
29775;DHT22;16676;51.202;6.774;2023-08-07T22:26:08;21.40;63.90
29775;DHT22;16676;51.202;6.774;2023-08-07T22:30:11;21.40;63.80
29775;DHT22;16676;51.202;6.774;2023-08-07T22:34:14;21.30;64.10
29775;DHT22;16676;51.202;6.774;2023-08-07T22:38:16;21.30;64.10
29775;DHT22;16676;51.202;6.774;2023-08-07T22:42:19;21.30;64.00
29775;DHT22;16676;51.202;6.774;2023-08-07T22:46:21;21.30;64.20
29775;DHT22;16676;51.202;6.774;2023-08-07T22:50:23;21.30;64.10
29775;DHT22;16676;51.202;6.774;2023-08-07T22:54:25;21.30;64.10
29775;DHT22;16676;51.202;6.774;2023-08-07T22:58:28;21.30;64.00
29775;DHT22;16676;51.202;6.774;2023-08-07T23:02:30;21.30;64.20
29775;DHT22;16676;51.202;6.774;2023-08-07T23:06:32;21.30;64.30
29775;DHT22;16676;51.202;6.774;2023-08-07T23:10:34;21.30;64.50
29775;DHT22;16676;51.202;6.774;2023-08-07T23:14:38;21.20;64.50
29775;DHT22;16676;51.202;6.774;2023-08-07T23:18:39;21.20;64.40
29775;DHT22;16676;51.202;6.774;2023-08-07T23:22:41;21.30;64.20
29775;DHT22;16676;51.202;6.774;2023-08-07T23:26:43;21.20;64.20
29775;DHT22;16676;51.202;6.774;2023-08-07T23:30:46;21.30;64.30
29775;DHT22;16676;51.202;6.774;2023-08-07T23:34:48;21.30;64.20
29775;DHT22;16676;51.202;6.774;2023-08-07T23:38:50;21.20;64.10
29775;DHT22;16676;51.202;6.774;2023-08-07T23:42:52;21.20;64.30
29775;DHT22;16676;51.202;6.774;2023-08-07T23:46:56;21.20;64.20
29775;DHT22;16676;51.202;6.774;2023-08-07T23:50:57;21.20;64.60
29775;DHT22;16676;51.202;6.774;2023-08-07T23:54:59;21.20;64.40
29775;DHT22;16676;51.202;6.774;2023-08-07T23:59:02;21.20;64.30
